createdAt,value
2018-06-12T00:00:11.785Z,65
2018-06-12T00:00:24.363Z,65
2018-06-12T00:00:36.810Z,65
2018-06-12T00:00:49.247Z,65
2018-06-12T00:01:01.958Z,65
2018-06-12T00:01:14.427Z,65
2018-06-12T00:01:26.851Z,65
2018-06-12T00:01:39.272Z,65
2018-06-12T00:01:51.686Z,65
2018-06-12T00:02:04.094Z,65
2018-06-12T00:02:16.481Z,65
2018-06-12T00:02:29.021Z,65
2018-06-12T00:02:41.429Z,65
2018-06-12T00:02:53.854Z,65
2018-06-12T00:03:06.315Z,65
2018-06-12T00:03:18.735Z,65
2018-06-12T00:03:31.198Z,65
2018-06-12T00:03:43.597Z,65
2018-06-12T00:03:56.014Z,65
2018-06-12T00:04:08.413Z,65
2018-06-12T00:04:20.822Z,65
2018-06-12T00:04:33.214Z,65
2018-06-12T00:04:45.661Z,65
2018-06-12T00:04:58.064Z,65
2018-06-12T00:05:10.517Z,65
2018-06-12T00:05:22.962Z,65
2018-06-12T00:05:35.370Z,65
2018-06-12T00:05:47.794Z,65
2018-06-12T00:06:00.265Z,65
2018-06-12T00:06:12.699Z,65
2018-06-12T00:06:25.092Z,65
2018-06-12T00:06:37.500Z,65
2018-06-12T00:06:50.100Z,65
2018-06-12T00:07:02.523Z,65
2018-06-12T00:07:14.925Z,65
2018-06-12T00:07:27.357Z,65
2018-06-12T00:07:39.751Z,65
2018-06-12T00:07:52.160Z,65
2018-06-12T00:08:04.589Z,65
2018-06-12T00:08:16.981Z,66
2018-06-12T00:08:29.425Z,66
2018-06-12T00:08:41.827Z,66
2018-06-12T00:08:54.219Z,66
2018-06-12T00:09:06.652Z,65
2018-06-12T00:09:19.089Z,65
2018-06-12T00:09:31.507Z,65
2018-06-12T00:09:43.906Z,65
2018-06-12T00:09:56.331Z,66
2018-06-12T00:10:08.735Z,66
2018-06-12T00:10:21.153Z,66
2018-06-12T00:10:33.585Z,66
2018-06-12T00:10:45.993Z,66
2018-06-12T00:10:58.410Z,66
2018-06-12T00:11:10.835Z,66
2018-06-12T00:11:23.233Z,66
2018-06-12T00:11:35.647Z,66
2018-06-12T00:11:48.054Z,66
2018-06-12T00:12:00.519Z,66
2018-06-12T00:12:12.934Z,66
2018-06-12T00:12:25.338Z,66
2018-06-12T00:12:37.746Z,66
2018-06-12T00:12:50.139Z,66
2018-06-12T00:13:02.584Z,66
2018-06-12T00:13:15.031Z,66
2018-06-12T00:13:27.456Z,66
2018-06-12T00:13:39.855Z,66
2018-06-12T00:13:52.284Z,66
2018-06-12T00:14:04.745Z,66
2018-06-12T00:14:17.134Z,66
2018-06-12T00:14:29.529Z,66
2018-06-12T00:14:41.937Z,66
2018-06-12T00:14:54.326Z,66
2018-06-12T00:15:06.776Z,66
2018-06-12T00:15:19.197Z,66
2018-06-12T00:15:31.599Z,66
2018-06-12T00:15:44.012Z,66
2018-06-12T00:15:56.406Z,66
2018-06-12T00:16:08.816Z,66
2018-06-12T00:16:21.223Z,66
2018-06-12T00:16:33.624Z,66
2018-06-12T00:16:46.072Z,66
2018-06-12T00:16:58.514Z,66
2018-06-12T00:17:10.934Z,66
2018-06-12T00:17:23.339Z,66
2018-06-12T00:17:35.741Z,66
2018-06-12T00:17:48.141Z,66
2018-06-12T00:18:00.687Z,66
2018-06-12T00:18:13.128Z,66
2018-06-12T00:18:25.531Z,66
2018-06-12T00:18:37.930Z,66
2018-06-12T00:18:50.333Z,66
2018-06-12T00:19:02.786Z,66
2018-06-12T00:19:15.251Z,66
2018-06-12T00:19:27.648Z,66
2018-06-12T00:19:40.044Z,66
2018-06-12T00:19:52.724Z,66
2018-06-12T00:20:05.212Z,66
2018-06-12T00:20:17.634Z,66
2018-06-12T00:20:30.034Z,66
2018-06-12T00:20:42.442Z,66
2018-06-12T00:20:54.835Z,66
2018-06-12T00:21:07.241Z,67
2018-06-12T00:21:19.685Z,67
2018-06-12T00:21:32.088Z,67
2018-06-12T00:21:44.512Z,67
2018-06-12T00:21:56.906Z,67
2018-06-12T00:22:09.316Z,67
2018-06-12T00:22:21.714Z,67
2018-06-12T00:22:34.134Z,67
2018-06-12T00:22:46.537Z,67
2018-06-12T00:22:58.947Z,67
2018-06-12T00:23:11.381Z,67
2018-06-12T00:23:23.823Z,67
2018-06-12T00:23:36.222Z,67
2018-06-12T00:23:48.770Z,67
2018-06-12T00:24:01.238Z,67
2018-06-12T00:24:13.643Z,67
2018-06-12T00:24:26.042Z,67
2018-06-12T00:24:38.479Z,67
2018-06-12T00:24:50.865Z,67
2018-06-12T00:25:03.296Z,67
2018-06-12T00:25:15.767Z,67
2018-06-12T00:25:28.323Z,67
2018-06-12T00:25:40.751Z,67
2018-06-12T00:25:53.146Z,67
2018-06-12T00:26:05.557Z,67
2018-06-12T00:26:17.969Z,67
2018-06-12T00:26:30.408Z,67
2018-06-12T00:26:42.812Z,67
2018-06-12T00:26:55.213Z,67
2018-06-12T00:27:07.631Z,67
2018-06-12T00:27:20.029Z,67
2018-06-12T00:27:32.431Z,67
2018-06-12T00:27:44.833Z,67
2018-06-12T00:27:57.227Z,67
2018-06-12T00:28:09.639Z,67
2018-06-12T00:28:22.038Z,67
2018-06-12T00:28:34.456Z,67
2018-06-12T00:28:46.873Z,67
2018-06-12T00:28:59.303Z,67
2018-06-12T00:29:11.712Z,67
2018-06-12T00:29:24.165Z,67
2018-06-12T00:29:36.572Z,68
2018-06-12T00:29:49.046Z,68
2018-06-12T00:30:01.449Z,68
2018-06-12T00:30:13.962Z,68
2018-06-12T00:30:26.361Z,68
2018-06-12T00:30:38.768Z,68
2018-06-12T00:30:51.178Z,68
2018-06-12T00:31:03.565Z,68
2018-06-12T00:31:15.975Z,67
2018-06-12T00:31:28.410Z,67
2018-06-12T00:31:40.820Z,67
2018-06-12T00:31:53.209Z,67
2018-06-12T00:32:05.608Z,67
2018-06-12T00:32:18.021Z,67
2018-06-12T00:32:30.413Z,67
2018-06-12T00:32:42.797Z,67
2018-06-12T00:32:55.194Z,68
2018-06-12T00:33:07.597Z,68
2018-06-12T00:33:19.992Z,68
2018-06-12T00:33:32.405Z,68
2018-06-12T00:33:44.818Z,68
2018-06-12T00:33:57.224Z,68
2018-06-12T00:34:09.627Z,68
2018-06-12T00:34:22.043Z,68
2018-06-12T00:34:34.484Z,68
2018-06-12T00:34:46.901Z,68
2018-06-12T00:34:59.300Z,68
2018-06-12T00:35:11.770Z,68
2018-06-12T00:35:24.174Z,68
2018-06-12T00:35:36.563Z,68
2018-06-12T00:35:48.987Z,68
2018-06-12T00:36:01.457Z,68
2018-06-12T00:36:13.868Z,68
2018-06-12T00:36:26.300Z,68
2018-06-12T00:36:38.708Z,68
2018-06-12T00:36:51.155Z,68
2018-06-12T00:37:03.636Z,68
2018-06-12T00:37:16.046Z,68
2018-06-12T00:37:28.459Z,68
2018-06-12T00:37:40.865Z,68
2018-06-12T00:37:53.343Z,68
2018-06-12T00:38:05.768Z,68
2018-06-12T00:38:18.320Z,68
2018-06-12T00:38:30.769Z,68
2018-06-12T00:38:43.173Z,68
2018-06-12T00:38:55.574Z,68
2018-06-12T00:39:07.978Z,68
2018-06-12T00:39:20.432Z,68
2018-06-12T00:39:32.851Z,68
2018-06-12T00:39:45.250Z,69
2018-06-12T00:39:57.660Z,69
2018-06-12T00:40:10.073Z,69
2018-06-12T00:40:22.497Z,69
2018-06-12T00:40:34.897Z,69
2018-06-12T00:40:47.319Z,69
2018-06-12T00:40:59.707Z,69
2018-06-12T00:41:12.116Z,69
2018-06-12T00:41:24.531Z,69
2018-06-12T00:41:36.991Z,69
2018-06-12T00:41:49.389Z,69
2018-06-12T00:42:01.818Z,69
2018-06-12T00:42:14.247Z,69
2018-06-12T00:42:26.677Z,69
2018-06-12T00:42:39.077Z,69
2018-06-12T00:42:51.525Z,69
2018-06-12T00:43:03.921Z,69
2018-06-12T00:43:16.322Z,69
2018-06-12T00:43:28.723Z,69
2018-06-12T00:43:41.149Z,69
2018-06-12T00:43:53.584Z,69
2018-06-12T00:44:05.995Z,69
2018-06-12T00:44:18.456Z,69
2018-06-12T00:44:30.870Z,69
2018-06-12T00:44:43.283Z,69
2018-06-12T00:44:55.692Z,69
2018-06-12T00:45:08.109Z,69
2018-06-12T00:45:20.525Z,69
2018-06-12T00:45:32.908Z,69
2018-06-12T00:45:45.314Z,69
2018-06-12T00:45:57.890Z,69
2018-06-12T00:46:10.364Z,69
2018-06-12T00:46:22.780Z,69
2018-06-12T00:46:35.221Z,69
2018-06-12T00:46:47.658Z,69
2018-06-12T00:47:00.080Z,69
2018-06-12T00:47:12.557Z,69
2018-06-12T00:47:24.976Z,69
2018-06-12T00:47:37.380Z,69
2018-06-12T00:47:49.832Z,69
2018-06-12T00:48:02.281Z,69
2018-06-12T00:48:14.844Z,69
2018-06-12T00:48:27.302Z,70
2018-06-12T00:48:39.927Z,70
2018-06-12T00:48:52.382Z,70
2018-06-12T00:49:04.820Z,70
2018-06-12T00:49:17.278Z,70
2018-06-12T00:49:29.706Z,70
2018-06-12T00:49:42.101Z,70
2018-06-12T00:49:54.525Z,70
2018-06-12T00:50:06.961Z,70
2018-06-12T00:50:19.378Z,70
2018-06-12T00:50:31.789Z,70
2018-06-12T00:50:44.220Z,70
2018-06-12T00:50:56.655Z,70
2018-06-12T00:51:09.054Z,70
2018-06-12T00:51:21.514Z,70
2018-06-12T00:51:33.991Z,70
2018-06-12T00:51:46.413Z,70
2018-06-12T00:51:58.882Z,70
2018-06-12T00:52:11.319Z,70
2018-06-12T00:52:23.735Z,70
2018-06-12T00:52:36.133Z,70
2018-06-12T00:52:48.548Z,70
2018-06-12T00:53:00.950Z,70
2018-06-12T00:53:13.364Z,70
2018-06-12T00:53:25.820Z,70
2018-06-12T00:53:38.222Z,70
2018-06-12T00:53:50.627Z,70
2018-06-12T00:54:03.040Z,70
2018-06-12T00:54:15.445Z,70
2018-06-12T00:54:27.906Z,70
2018-06-12T00:54:40.354Z,70
2018-06-12T00:54:52.770Z,70
2018-06-12T00:55:05.209Z,70
2018-06-12T00:55:17.642Z,70
2018-06-12T00:55:30.060Z,70
2018-06-12T00:55:42.457Z,70
2018-06-12T00:55:54.952Z,70
2018-06-12T00:56:07.412Z,70
2018-06-12T00:56:19.830Z,70
2018-06-12T00:56:32.265Z,70
2018-06-12T00:56:44.803Z,70
2018-06-12T00:56:57.246Z,71
2018-06-12T00:57:09.704Z,71
2018-06-12T00:57:22.118Z,71
2018-06-12T00:57:34.532Z,71
2018-06-12T00:57:46.932Z,71
2018-06-12T00:57:59.372Z,71
2018-06-12T00:58:11.944Z,71
2018-06-12T00:58:24.376Z,71
2018-06-12T00:58:36.773Z,71
2018-06-12T00:58:49.187Z,71
2018-06-12T00:59:01.740Z,71
2018-06-12T00:59:14.151Z,71
2018-06-12T00:59:26.570Z,71
2018-06-12T00:59:38.968Z,71
2018-06-12T00:59:51.360Z,71
2018-06-12T01:00:03.785Z,71
2018-06-12T01:00:16.219Z,71
2018-06-12T01:00:28.671Z,71
2018-06-12T01:00:41.142Z,71
2018-06-12T01:00:53.725Z,71
2018-06-12T01:01:06.144Z,71
2018-06-12T01:01:18.558Z,71
2018-06-12T01:01:30.984Z,71
2018-06-12T01:01:43.411Z,71
2018-06-12T01:01:55.881Z,71
2018-06-12T01:02:08.378Z,71
2018-06-12T01:02:20.794Z,71
2018-06-12T01:02:33.328Z,71
2018-06-12T01:02:45.728Z,71
2018-06-12T01:02:58.144Z,71
2018-06-12T01:03:10.545Z,71
2018-06-12T01:03:22.947Z,71
2018-06-12T01:03:35.389Z,71
2018-06-12T01:03:47.820Z,71
2018-06-12T01:04:00.285Z,71
2018-06-12T01:04:12.685Z,71
2018-06-12T01:04:25.082Z,71
2018-06-12T01:04:37.482Z,71
2018-06-12T01:04:49.946Z,71
2018-06-12T01:05:02.380Z,71
2018-06-12T01:05:14.790Z,71
2018-06-12T01:05:27.198Z,71
2018-06-12T01:05:39.598Z,71
2018-06-12T01:05:52.040Z,71
2018-06-12T01:06:04.475Z,71
2018-06-12T01:06:16.881Z,71
2018-06-12T01:06:29.269Z,71
2018-06-12T01:06:41.717Z,71
2018-06-12T01:06:54.281Z,71
2018-06-12T01:07:06.694Z,72
2018-06-12T01:07:19.131Z,72
2018-06-12T01:07:31.561Z,72
2018-06-12T01:07:43.997Z,72
2018-06-12T01:07:56.402Z,72
2018-06-12T01:08:08.813Z,72
2018-06-12T01:08:21.254Z,72
2018-06-12T01:08:33.671Z,72
2018-06-12T01:08:46.067Z,72
2018-06-12T01:08:58.473Z,72
2018-06-12T01:09:10.903Z,72
2018-06-12T01:09:23.307Z,72
2018-06-12T01:09:35.742Z,72
2018-06-12T01:09:48.140Z,72
2018-06-12T01:10:00.556Z,72
2018-06-12T01:10:12.995Z,72
2018-06-12T01:10:25.446Z,72
2018-06-12T01:10:37.894Z,72
2018-06-12T01:10:50.302Z,72
2018-06-12T01:11:02.726Z,72
2018-06-12T01:11:15.217Z,72
2018-06-12T01:11:27.625Z,72
2018-06-12T01:11:40.022Z,72
2018-06-12T01:11:52.482Z,72
2018-06-12T01:12:04.914Z,72
2018-06-12T01:12:17.337Z,72
2018-06-12T01:12:29.747Z,72
2018-06-12T01:12:42.162Z,72
2018-06-12T01:12:54.622Z,72
2018-06-12T01:13:07.034Z,72
2018-06-12T01:13:19.444Z,72
2018-06-12T01:13:31.916Z,72
2018-06-12T01:13:44.327Z,72
2018-06-12T01:13:56.728Z,72
2018-06-12T01:14:09.144Z,72
2018-06-12T01:14:21.603Z,72
2018-06-12T01:14:34.012Z,72
2018-06-12T01:14:46.451Z,72
2018-06-12T01:14:58.879Z,72
2018-06-12T01:15:11.347Z,72
2018-06-12T01:15:23.769Z,72
2018-06-12T01:15:36.187Z,72
2018-06-12T01:15:48.612Z,72
2018-06-12T01:16:01.043Z,72
2018-06-12T01:16:13.455Z,72
2018-06-12T01:16:25.845Z,72
2018-06-12T01:16:38.259Z,72
2018-06-12T01:16:50.674Z,72
2018-06-12T01:17:03.084Z,72
2018-06-12T01:17:15.509Z,72
2018-06-12T01:17:28.075Z,73
2018-06-12T01:17:40.459Z,73
2018-06-12T01:17:53.005Z,73
2018-06-12T01:18:05.410Z,73
2018-06-12T01:18:17.834Z,73
2018-06-12T01:18:30.237Z,73
2018-06-12T01:18:42.654Z,73
2018-06-12T01:18:55.051Z,73
2018-06-12T01:19:07.465Z,73
2018-06-12T01:19:19.903Z,73
2018-06-12T01:19:32.298Z,73
2018-06-12T01:19:44.695Z,73
2018-06-12T01:19:57.417Z,73
2018-06-12T01:20:09.845Z,73
2018-06-12T01:20:22.246Z,73
2018-06-12T01:20:34.666Z,73
2018-06-12T01:20:47.090Z,73
2018-06-12T01:20:59.554Z,73
2018-06-12T01:21:11.955Z,73
2018-06-12T01:21:24.381Z,73
2018-06-12T01:21:36.822Z,73
2018-06-12T01:21:49.227Z,73
2018-06-12T01:22:01.652Z,73
2018-06-12T01:22:14.060Z,73
2018-06-12T01:22:26.454Z,73
2018-06-12T01:22:38.862Z,73
2018-06-12T01:22:51.292Z,73
2018-06-12T01:23:03.777Z,73
2018-06-12T01:23:16.285Z,73
2018-06-12T01:23:28.694Z,73
2018-06-12T01:23:41.129Z,73
2018-06-12T01:23:53.537Z,73
2018-06-12T01:24:05.961Z,73
2018-06-12T01:24:18.379Z,73
2018-06-12T01:24:30.791Z,73
2018-06-12T01:24:43.203Z,73
2018-06-12T01:24:55.634Z,73
2018-06-12T01:25:08.069Z,73
2018-06-12T01:25:20.501Z,73
2018-06-12T01:25:33.104Z,73
2018-06-12T01:25:45.506Z,73
2018-06-12T01:25:57.902Z,74
2018-06-12T01:26:10.335Z,74
2018-06-12T01:26:22.738Z,74
2018-06-12T01:26:35.153Z,74
2018-06-12T01:26:47.545Z,74
2018-06-12T01:26:59.988Z,74
2018-06-12T01:27:12.395Z,74
2018-06-12T01:27:24.823Z,74
2018-06-12T01:27:37.221Z,74
2018-06-12T01:27:49.613Z,74
2018-06-12T01:28:02.021Z,74
2018-06-12T01:28:14.456Z,74
2018-06-12T01:28:26.888Z,74
2018-06-12T01:28:39.320Z,74
2018-06-12T01:28:51.745Z,74
2018-06-12T01:29:04.145Z,74
2018-06-12T01:29:16.725Z,74
2018-06-12T01:29:29.168Z,74
2018-06-12T01:29:41.599Z,74
2018-06-12T01:29:54.022Z,74
2018-06-12T01:30:06.442Z,74
2018-06-12T01:30:18.863Z,74
2018-06-12T01:30:31.294Z,74
2018-06-12T01:30:43.681Z,74
2018-06-12T01:30:56.089Z,74
2018-06-12T01:31:08.489Z,74
2018-06-12T01:31:20.916Z,74
2018-06-12T01:31:33.318Z,74
2018-06-12T01:31:45.754Z,74
2018-06-12T01:31:58.189Z,74
2018-06-12T01:32:10.624Z,74
2018-06-12T01:32:23.042Z,74
2018-06-12T01:32:35.447Z,74
2018-06-12T01:32:47.862Z,74
2018-06-12T01:33:00.295Z,74
2018-06-12T01:33:12.724Z,74
2018-06-12T01:33:25.163Z,74
2018-06-12T01:33:37.584Z,74
2018-06-12T01:33:49.994Z,74
2018-06-12T01:34:02.397Z,74
2018-06-12T01:34:14.802Z,74
2018-06-12T01:34:27.198Z,74
2018-06-12T01:34:39.578Z,74
2018-06-12T01:34:51.978Z,74
2018-06-12T01:35:04.400Z,74
2018-06-12T01:35:16.799Z,74
2018-06-12T01:35:29.207Z,74
2018-06-12T01:35:41.684Z,74
2018-06-12T01:35:54.090Z,74
2018-06-12T01:36:06.507Z,74
2018-06-12T01:36:18.983Z,74
2018-06-12T01:36:31.417Z,74
2018-06-12T01:36:43.842Z,74
2018-06-12T01:36:56.254Z,74
2018-06-12T01:37:08.643Z,74
2018-06-12T01:37:21.197Z,74
2018-06-12T01:37:33.597Z,74
2018-06-12T01:37:46.020Z,74
2018-06-12T01:37:58.436Z,74
2018-06-12T01:38:10.826Z,74
2018-06-12T01:38:23.391Z,74
2018-06-12T01:38:35.787Z,74
2018-06-12T01:38:48.203Z,74
2018-06-12T01:39:00.620Z,74
2018-06-12T01:39:13.068Z,74
2018-06-12T01:39:25.478Z,74
2018-06-12T01:39:37.876Z,74
2018-06-12T01:39:50.291Z,74
2018-06-12T01:40:02.717Z,74
2018-06-12T01:40:15.151Z,74
2018-06-12T01:40:27.699Z,74
2018-06-12T01:40:40.099Z,74
2018-06-12T01:40:52.514Z,74
2018-06-12T01:41:04.938Z,74
2018-06-12T01:41:17.426Z,75
2018-06-12T01:41:29.878Z,75
2018-06-12T01:41:42.305Z,75
2018-06-12T01:41:54.709Z,75
2018-06-12T01:42:07.120Z,74
2018-06-12T01:42:19.546Z,74
2018-06-12T01:42:31.942Z,74
2018-06-12T01:42:44.339Z,74
2018-06-12T01:42:56.758Z,75
2018-06-12T01:43:09.172Z,75
2018-06-12T01:43:21.634Z,75
2018-06-12T01:43:34.070Z,75
2018-06-12T01:43:46.519Z,75
2018-06-12T01:43:58.924Z,75
2018-06-12T01:44:11.331Z,75
2018-06-12T01:44:23.744Z,75
2018-06-12T01:44:36.158Z,75
2018-06-12T01:44:48.590Z,75
2018-06-12T01:45:01.001Z,75
2018-06-12T01:45:13.429Z,75
2018-06-12T01:45:25.826Z,75
2018-06-12T01:45:38.243Z,75
2018-06-12T01:45:50.684Z,75
2018-06-12T01:46:03.244Z,75
2018-06-12T01:46:15.695Z,75
2018-06-12T01:46:28.099Z,75
2018-06-12T01:46:40.511Z,75
2018-06-12T01:46:52.978Z,75
2018-06-12T01:47:05.409Z,75
2018-06-12T01:47:17.825Z,75
2018-06-12T01:47:30.228Z,75
2018-06-12T01:47:42.634Z,75
2018-06-12T01:47:55.046Z,75
2018-06-12T01:48:07.444Z,75
2018-06-12T01:48:19.892Z,75
2018-06-12T01:48:32.423Z,75
2018-06-12T01:48:44.834Z,75
2018-06-12T01:48:57.244Z,75
2018-06-12T01:49:09.655Z,75
2018-06-12T01:49:22.070Z,75
2018-06-12T01:49:34.479Z,75
2018-06-12T01:49:46.887Z,75
2018-06-12T01:49:59.317Z,75
2018-06-12T01:50:11.720Z,75
2018-06-12T01:50:24.113Z,75
2018-06-12T01:50:36.500Z,75
2018-06-12T01:50:48.906Z,75
2018-06-12T01:51:01.302Z,75
2018-06-12T01:51:13.822Z,75
2018-06-12T01:51:26.236Z,75
2018-06-12T01:51:38.671Z,75
2018-06-12T01:51:51.069Z,75
2018-06-12T01:52:03.483Z,75
2018-06-12T01:52:15.869Z,75
2018-06-12T01:52:28.268Z,75
2018-06-12T01:52:40.670Z,75
2018-06-12T01:52:53.097Z,75
2018-06-12T01:53:05.505Z,75
2018-06-12T01:53:17.975Z,75
2018-06-12T01:53:30.365Z,75
2018-06-12T01:53:42.774Z,75
2018-06-12T01:53:55.176Z,75
2018-06-12T01:54:07.601Z,75
2018-06-12T01:54:20.018Z,75
2018-06-12T01:54:32.428Z,75
2018-06-12T01:54:44.871Z,75
2018-06-12T01:54:57.305Z,75
2018-06-12T01:55:09.730Z,75
2018-06-12T01:55:22.170Z,75
2018-06-12T01:55:34.642Z,75
2018-06-12T01:55:47.233Z,75
2018-06-12T01:55:59.639Z,75
2018-06-12T01:56:12.089Z,75
2018-06-12T01:56:24.528Z,75
2018-06-12T01:56:36.922Z,76
2018-06-12T01:56:49.326Z,76
2018-06-12T01:57:01.748Z,76
2018-06-12T01:57:14.170Z,76
2018-06-12T01:57:26.770Z,76
2018-06-12T01:57:39.196Z,76
2018-06-12T01:57:51.587Z,76
2018-06-12T01:58:03.997Z,76
2018-06-12T01:58:16.410Z,76
2018-06-12T01:58:28.835Z,76
2018-06-12T01:58:41.256Z,76
2018-06-12T01:58:53.666Z,76
2018-06-12T01:59:06.081Z,76
2018-06-12T01:59:18.474Z,76
2018-06-12T01:59:30.868Z,76
2018-06-12T01:59:43.250Z,76
2018-06-12T01:59:55.663Z,76
2018-06-12T02:00:08.082Z,76
2018-06-12T02:00:20.483Z,76
2018-06-12T02:00:32.919Z,76
2018-06-12T02:00:45.353Z,76
2018-06-12T02:00:57.903Z,76
2018-06-12T02:01:10.334Z,76
2018-06-12T02:01:22.760Z,76
2018-06-12T02:01:35.192Z,76
2018-06-12T02:01:47.659Z,76
2018-06-12T02:02:00.097Z,76
2018-06-12T02:02:12.551Z,76
2018-06-12T02:02:25.052Z,76
2018-06-12T02:02:37.711Z,76
2018-06-12T02:02:50.140Z,76
2018-06-12T02:03:02.581Z,76
2018-06-12T02:03:14.994Z,76
2018-06-12T02:03:27.405Z,76
2018-06-12T02:03:39.802Z,76
2018-06-12T02:03:52.201Z,76
2018-06-12T02:04:04.611Z,76
2018-06-12T02:04:17.053Z,76
2018-06-12T02:04:29.486Z,76
2018-06-12T02:04:41.898Z,76
2018-06-12T02:04:54.312Z,76
2018-06-12T02:05:06.781Z,76
2018-06-12T02:05:19.209Z,76
2018-06-12T02:05:31.615Z,76
2018-06-12T02:05:44.014Z,76
2018-06-12T02:05:56.427Z,76
2018-06-12T02:06:08.826Z,76
2018-06-12T02:06:21.247Z,76
2018-06-12T02:06:33.636Z,76
2018-06-12T02:06:46.051Z,76
2018-06-12T02:06:58.614Z,76
2018-06-12T02:07:11.040Z,76
2018-06-12T02:07:23.450Z,76
2018-06-12T02:07:35.851Z,76
2018-06-12T02:07:48.259Z,76
2018-06-12T02:08:00.692Z,76
2018-06-12T02:08:13.096Z,76
2018-06-12T02:08:25.507Z,76
2018-06-12T02:08:37.954Z,76
2018-06-12T02:08:50.364Z,76
2018-06-12T02:09:02.810Z,76
2018-06-12T02:09:15.245Z,76
2018-06-12T02:09:27.652Z,76
2018-06-12T02:09:40.068Z,76
2018-06-12T02:09:52.477Z,76
2018-06-12T02:10:04.878Z,76
2018-06-12T02:10:17.299Z,76
2018-06-12T02:10:29.726Z,76
2018-06-12T02:10:42.132Z,76
2018-06-12T02:10:54.556Z,76
2018-06-12T02:11:06.985Z,76
2018-06-12T02:11:19.534Z,76
2018-06-12T02:11:31.934Z,76
2018-06-12T02:11:44.342Z,76
2018-06-12T02:11:56.753Z,76
2018-06-12T02:12:09.212Z,76
2018-06-12T02:12:21.634Z,76
2018-06-12T02:12:34.068Z,76
2018-06-12T02:12:46.507Z,76
2018-06-12T02:12:58.912Z,76
2018-06-12T02:13:11.329Z,76
2018-06-12T02:13:23.774Z,76
2018-06-12T02:13:36.206Z,76
2018-06-12T02:13:48.630Z,76
2018-06-12T02:14:01.062Z,76
2018-06-12T02:14:13.486Z,76
2018-06-12T02:14:25.914Z,76
2018-06-12T02:14:38.381Z,75
2018-06-12T02:14:50.840Z,75
2018-06-12T02:15:03.254Z,75
2018-06-12T02:15:15.656Z,75
2018-06-12T02:15:28.107Z,76
2018-06-12T02:15:40.524Z,76
2018-06-12T02:15:52.917Z,76
2018-06-12T02:16:05.318Z,76
2018-06-12T02:16:17.764Z,75
2018-06-12T02:16:30.172Z,75
2018-06-12T02:16:42.575Z,75
2018-06-12T02:16:54.988Z,75
2018-06-12T02:17:07.472Z,75
2018-06-12T02:17:19.883Z,75
2018-06-12T02:17:32.283Z,75
2018-06-12T02:17:44.705Z,75
2018-06-12T02:17:57.287Z,75
2018-06-12T02:18:09.724Z,75
2018-06-12T02:18:22.116Z,75
2018-06-12T02:18:34.528Z,75
2018-06-12T02:18:46.946Z,75
2018-06-12T02:18:59.384Z,75
2018-06-12T02:19:11.799Z,75
2018-06-12T02:19:24.191Z,75
2018-06-12T02:19:36.584Z,75
2018-06-12T02:19:48.992Z,75
2018-06-12T02:20:01.602Z,75
2018-06-12T02:20:14.007Z,75
2018-06-12T02:20:26.399Z,75
2018-06-12T02:20:38.798Z,75
2018-06-12T02:20:51.267Z,75
2018-06-12T02:21:03.683Z,75
2018-06-12T02:21:16.083Z,75
2018-06-12T02:21:28.487Z,75
2018-06-12T02:21:40.895Z,75
2018-06-12T02:21:53.294Z,75
2018-06-12T02:22:05.700Z,75
2018-06-12T02:22:18.112Z,75
2018-06-12T02:22:30.522Z,75
2018-06-12T02:22:42.924Z,75
2018-06-12T02:22:55.321Z,75
2018-06-12T02:23:07.728Z,75
2018-06-12T02:23:20.134Z,75
2018-06-12T02:23:32.554Z,75
2018-06-12T02:23:45.033Z,75
2018-06-12T02:23:57.441Z,75
2018-06-12T02:24:09.857Z,75
2018-06-12T02:24:22.299Z,75
2018-06-12T02:24:34.686Z,75
2018-06-12T02:24:47.113Z,75
2018-06-12T02:24:59.610Z,75
2018-06-12T02:25:12.011Z,75
2018-06-12T02:25:24.671Z,75
2018-06-12T02:25:37.062Z,75
2018-06-12T02:25:49.468Z,74
2018-06-12T02:26:01.887Z,74
2018-06-12T02:26:14.326Z,74
2018-06-12T02:26:26.735Z,74
2018-06-12T02:26:39.194Z,75
2018-06-12T02:26:51.611Z,75
2018-06-12T02:27:04.034Z,75
2018-06-12T02:27:16.448Z,75
2018-06-12T02:27:28.878Z,75
2018-06-12T02:27:41.290Z,75
2018-06-12T02:27:53.683Z,75
2018-06-12T02:28:06.120Z,75
2018-06-12T02:28:18.579Z,74
2018-06-12T02:28:30.991Z,74
2018-06-12T02:28:43.384Z,74
2018-06-12T02:28:55.791Z,74
2018-06-12T02:29:08.194Z,75
2018-06-12T02:29:20.616Z,75
2018-06-12T02:29:33.015Z,75
2018-06-12T02:29:45.437Z,75
2018-06-12T02:29:57.846Z,75
2018-06-12T02:30:10.296Z,75
2018-06-12T02:30:22.760Z,75
2018-06-12T02:30:35.213Z,75
2018-06-12T02:30:47.659Z,74
2018-06-12T02:31:00.132Z,74
2018-06-12T02:31:12.592Z,74
2018-06-12T02:31:25.030Z,74
2018-06-12T02:31:37.493Z,74
2018-06-12T02:31:49.931Z,74
2018-06-12T02:32:02.439Z,74
2018-06-12T02:32:14.850Z,74
2018-06-12T02:32:27.295Z,74
2018-06-12T02:32:39.752Z,74
2018-06-12T02:32:52.189Z,74
2018-06-12T02:33:04.645Z,74
2018-06-12T02:33:17.218Z,74
2018-06-12T02:33:29.719Z,74
2018-06-12T02:33:42.146Z,74
2018-06-12T02:33:54.566Z,74
2018-06-12T02:34:07.022Z,74
2018-06-12T02:34:19.481Z,74
2018-06-12T02:34:31.895Z,74
2018-06-12T02:34:44.325Z,74
2018-06-12T02:34:56.772Z,74
2018-06-12T02:35:09.200Z,74
2018-06-12T02:35:21.595Z,74
2018-06-12T02:35:34.029Z,74
2018-06-12T02:35:46.439Z,74
2018-06-12T02:35:58.848Z,74
2018-06-12T02:36:11.319Z,74
2018-06-12T02:36:23.757Z,74
2018-06-12T02:36:36.211Z,74
2018-06-12T02:36:48.617Z,74
2018-06-12T02:37:01.064Z,74
2018-06-12T02:37:13.523Z,74
2018-06-12T02:37:25.937Z,74
2018-06-12T02:37:38.366Z,74
2018-06-12T02:37:50.778Z,74
2018-06-12T02:38:03.364Z,74
2018-06-12T02:38:15.862Z,74
2018-06-12T02:38:28.495Z,74
2018-06-12T02:38:40.906Z,74
2018-06-12T02:38:53.354Z,74
2018-06-12T02:39:05.772Z,74
2018-06-12T02:39:18.205Z,74
2018-06-12T02:39:30.679Z,74
2018-06-12T02:39:43.136Z,74
2018-06-12T02:39:55.566Z,74
2018-06-12T02:40:08.014Z,74
2018-06-12T02:40:20.482Z,74
2018-06-12T02:40:32.921Z,74
2018-06-12T02:40:45.345Z,74
2018-06-12T02:40:57.784Z,74
2018-06-12T02:41:10.293Z,74
2018-06-12T02:41:22.717Z,74
2018-06-12T02:41:35.149Z,74
2018-06-12T02:41:47.610Z,74
2018-06-12T02:42:00.049Z,74
2018-06-12T02:42:12.453Z,74
2018-06-12T02:42:24.907Z,74
2018-06-12T02:42:37.325Z,74
2018-06-12T02:42:49.734Z,74
2018-06-12T02:43:02.227Z,74
2018-06-12T02:43:14.656Z,74
2018-06-12T02:43:27.124Z,74
2018-06-12T02:43:39.839Z,74
2018-06-12T02:43:52.286Z,74
2018-06-12T02:44:04.698Z,74
2018-06-12T02:44:17.214Z,74
2018-06-12T02:44:29.837Z,73
2018-06-12T02:44:43.459Z,73
2018-06-12T02:44:55.906Z,73
2018-06-12T02:45:08.350Z,73
2018-06-12T02:45:20.780Z,73
2018-06-12T02:45:33.216Z,73
2018-06-12T02:45:45.668Z,73
2018-06-12T02:45:58.292Z,73
2018-06-12T02:46:10.714Z,73
2018-06-12T02:46:23.141Z,73
2018-06-12T02:46:35.583Z,73
2018-06-12T02:46:47.985Z,73
2018-06-12T02:47:00.402Z,73
2018-06-12T02:47:12.866Z,73
2018-06-12T02:47:25.324Z,73
2018-06-12T02:47:37.758Z,73
2018-06-12T02:47:50.183Z,73
2018-06-12T02:48:02.640Z,74
2018-06-12T02:48:15.112Z,74
2018-06-12T02:48:27.538Z,74
2018-06-12T02:48:40.189Z,74
2018-06-12T02:48:52.601Z,74
2018-06-12T02:49:05.022Z,74
2018-06-12T02:49:17.427Z,74
2018-06-12T02:49:29.882Z,74
2018-06-12T02:49:42.305Z,73
2018-06-12T02:49:54.719Z,73
2018-06-12T02:50:07.214Z,73
2018-06-12T02:50:19.647Z,73
2018-06-12T02:50:32.069Z,74
2018-06-12T02:50:44.573Z,74
2018-06-12T02:50:57.091Z,74
2018-06-12T02:51:09.579Z,74
2018-06-12T02:51:22.013Z,73
2018-06-12T02:51:34.468Z,73
2018-06-12T02:51:46.905Z,73
2018-06-12T02:51:59.326Z,73
2018-06-12T02:52:11.777Z,73
2018-06-12T02:52:24.181Z,73
2018-06-12T02:52:36.604Z,73
2018-06-12T02:52:49.047Z,73
2018-06-12T02:53:01.498Z,73
2018-06-12T02:53:13.928Z,73
2018-06-12T02:53:26.362Z,73
2018-06-12T02:53:38.767Z,73
2018-06-12T02:53:51.219Z,73
2018-06-12T02:54:03.683Z,73
2018-06-12T02:54:16.140Z,73
2018-06-12T02:54:28.549Z,73
2018-06-12T02:54:41.038Z,73
2018-06-12T02:54:53.471Z,73
2018-06-12T02:55:05.946Z,73
2018-06-12T02:55:18.401Z,73
2018-06-12T02:55:30.830Z,73
2018-06-12T02:55:43.346Z,73
2018-06-12T02:55:55.781Z,73
2018-06-12T02:56:08.258Z,73
2018-06-12T02:56:21.381Z,73
2018-06-12T02:56:34.320Z,73
2018-06-12T02:56:46.766Z,73
2018-06-12T02:56:59.246Z,73
2018-06-12T02:57:11.669Z,73
2018-06-12T02:57:24.186Z,73